createdAt,value
2017-12-31T05:00:28.212Z,9.74
2017-12-31T05:00:53.725Z,9.66
2017-12-31T05:01:19.229Z,9.68
2017-12-31T05:01:44.737Z,9.83
2017-12-31T05:02:42.731Z,9.74
2017-12-31T05:03:08.218Z,9.77
2017-12-31T05:03:33.738Z,9.8
2017-12-31T05:03:59.281Z,9.76
2017-12-31T05:04:24.811Z,9.76
2017-12-31T05:04:50.277Z,9.77
2017-12-31T05:05:15.786Z,9.82
2017-12-31T05:05:41.282Z,9.77
2017-12-31T05:06:06.824Z,9.8
2017-12-31T05:06:32.303Z,9.84
2017-12-31T05:06:57.820Z,9.79
2017-12-31T05:07:23.342Z,9.74
2017-12-31T05:07:48.876Z,9.84
2017-12-31T05:08:14.400Z,9.77
2017-12-31T05:08:39.869Z,9.77
2017-12-31T05:09:05.350Z,9.76
2017-12-31T05:09:30.833Z,9.77
2017-12-31T05:09:56.382Z,9.84
2017-12-31T05:10:21.854Z,9.82
2017-12-31T05:10:47.315Z,9.83
2017-12-31T05:11:12.802Z,9.76
2017-12-31T05:11:38.265Z,9.76
2017-12-31T05:12:03.760Z,9.79
2017-12-31T05:12:29.243Z,9.87
2017-12-31T05:12:54.760Z,9.87
2017-12-31T05:13:20.228Z,9.77
2017-12-31T05:13:45.715Z,9.82
2017-12-31T05:14:11.204Z,9.83
2017-12-31T05:14:36.679Z,9.8
2017-12-31T05:15:02.185Z,9.8
2017-12-31T05:15:27.666Z,9.79
2017-12-31T05:15:53.173Z,9.8
2017-12-31T05:16:18.710Z,9.82
2017-12-31T05:16:44.292Z,9.89
2017-12-31T05:17:32.088Z,9.84
2017-12-31T05:17:57.598Z,9.86
2017-12-31T05:18:23.120Z,9.84
2017-12-31T05:18:48.589Z,9.89
2017-12-31T05:19:14.098Z,9.87
2017-12-31T05:19:39.614Z,9.84
2017-12-31T05:20:05.090Z,9.83
2017-12-31T05:20:30.635Z,9.82
2017-12-31T05:20:56.098Z,9.89
2017-12-31T05:21:21.575Z,9.86
2017-12-31T05:21:47.108Z,9.84
2017-12-31T05:22:12.616Z,9.79
2017-12-31T05:22:38.098Z,9.89
2017-12-31T05:23:03.629Z,9.87
2017-12-31T05:23:29.134Z,9.87
2017-12-31T05:23:54.605Z,9.86
2017-12-31T05:24:20.138Z,9.8
2017-12-31T05:24:45.676Z,9.89
2017-12-31T05:25:11.168Z,9.82
2017-12-31T05:25:36.667Z,9.97
2017-12-31T05:26:02.204Z,9.94
2017-12-31T05:26:27.771Z,9.94
2017-12-31T05:26:53.256Z,9.82
2017-12-31T05:27:18.762Z,9.82
2017-12-31T05:27:44.219Z,9.92
2017-12-31T05:28:09.729Z,9.95
2017-12-31T05:29:17.931Z,9.92
2017-12-31T05:29:43.423Z,9.94
2017-12-31T05:30:08.958Z,9.95
2017-12-31T05:30:34.465Z,9.86
2017-12-31T05:30:59.971Z,9.95
2017-12-31T05:31:25.500Z,9.92
2017-12-31T05:31:51.012Z,9.99
2017-12-31T05:32:16.510Z,9.94
2017-12-31T05:32:41.973Z,9.8
2017-12-31T05:33:07.494Z,9.94
2017-12-31T05:33:33.026Z,9.95
2017-12-31T05:33:58.525Z,9.92
2017-12-31T05:34:46.945Z,9.92
2017-12-31T05:35:12.790Z,9.95
2017-12-31T05:35:38.268Z,9.92
2017-12-31T05:36:03.731Z,9.98
2017-12-31T05:36:29.195Z,10.04
2017-12-31T05:36:54.653Z,9.98
2017-12-31T05:37:20.130Z,9.87
2017-12-31T05:37:45.597Z,9.95
2017-12-31T05:38:11.074Z,9.94
2017-12-31T05:38:36.590Z,10.05
2017-12-31T05:39:02.062Z,9.99
2017-12-31T05:39:27.537Z,10.02
2017-12-31T05:39:53.107Z,9.99
2017-12-31T05:40:18.596Z,9.97
2017-12-31T05:40:44.054Z,10.02
2017-12-31T05:41:36.989Z,10.01
2017-12-31T05:42:02.480Z,10.04
2017-12-31T05:42:27.982Z,10.04
2017-12-31T05:42:53.472Z,10.05
2017-12-31T05:43:18.952Z,10.01
2017-12-31T05:43:44.472Z,10.02
2017-12-31T05:44:09.957Z,10.04
2017-12-31T05:44:35.455Z,10.1
2017-12-31T05:45:00.954Z,10.04
2017-12-31T05:45:26.495Z,10.04
2017-12-31T05:45:51.992Z,10.07
2017-12-31T05:46:17.526Z,10.07
2017-12-31T05:46:43.017Z,10.04
2017-12-31T05:47:08.551Z,10.04
2017-12-31T05:47:34.026Z,10.05
2017-12-31T05:47:59.548Z,10.05
2017-12-31T05:48:25.057Z,10.1
2017-12-31T05:48:50.575Z,10.1
2017-12-31T05:49:16.053Z,10.13
2017-12-31T05:49:41.532Z,10.2
2017-12-31T05:50:07.030Z,10.13
2017-12-31T05:50:32.570Z,10.13
2017-12-31T05:50:58.071Z,10.25
2017-12-31T05:51:23.563Z,10.22
2017-12-31T05:51:49.079Z,10.2
2017-12-31T05:52:52.689Z,10.15
2017-12-31T05:53:18.178Z,10.2
2017-12-31T05:53:43.694Z,10.17
2017-12-31T05:54:09.207Z,10.16
2017-12-31T05:54:34.675Z,10.26
2017-12-31T05:55:00.207Z,10.25
2017-12-31T05:55:25.633Z,10.23
2017-12-31T05:55:51.130Z,10.22
2017-12-31T05:56:16.652Z,10.26
2017-12-31T05:56:42.145Z,10.26
2017-12-31T05:57:07.624Z,10.28
2017-12-31T05:57:33.116Z,10.28
2017-12-31T05:57:58.627Z,10.35
2017-12-31T05:58:24.118Z,10.26
2017-12-31T05:58:49.588Z,10.3
2017-12-31T05:59:15.122Z,10.31
2017-12-31T05:59:40.613Z,10.3
2017-12-31T06:00:06.118Z,10.31
2017-12-31T06:00:31.605Z,10.44
2017-12-31T06:00:57.102Z,10.33
2017-12-31T06:01:22.641Z,10.35
2017-12-31T06:01:48.107Z,10.26
2017-12-31T06:02:13.620Z,10.38
2017-12-31T06:02:39.110Z,10.35
2017-12-31T06:03:04.600Z,10.41
2017-12-31T06:03:30.100Z,10.35
2017-12-31T06:03:55.594Z,10.42
2017-12-31T06:04:21.104Z,10.41
2017-12-31T06:04:46.593Z,10.38
2017-12-31T06:05:12.119Z,10.38
2017-12-31T06:05:37.618Z,10.37
2017-12-31T06:06:03.134Z,10.48
2017-12-31T06:06:28.598Z,10.42
2017-12-31T06:06:54.115Z,10.51
2017-12-31T06:07:19.650Z,10.44
2017-12-31T06:07:45.123Z,10.53
2017-12-31T06:08:10.692Z,10.48
2017-12-31T06:08:36.214Z,10.53
2017-12-31T06:09:01.676Z,10.54
2017-12-31T06:09:27.156Z,10.56
2017-12-31T06:09:52.636Z,10.59
2017-12-31T06:10:18.133Z,10.56
2017-12-31T06:10:43.634Z,10.54
2017-12-31T06:11:09.141Z,10.54
2017-12-31T06:11:34.631Z,10.56
2017-12-31T06:12:00.127Z,10.56
2017-12-31T06:12:25.640Z,10.59
2017-12-31T06:12:51.181Z,10.64
2017-12-31T06:13:49.284Z,10.54
2017-12-31T06:14:14.750Z,10.64
2017-12-31T06:14:40.264Z,10.67
2017-12-31T06:15:05.753Z,10.72
2017-12-31T06:15:31.237Z,10.61
2017-12-31T06:16:19.100Z,10.67
2017-12-31T06:16:44.622Z,10.72
2017-12-31T06:17:10.048Z,10.75
2017-12-31T06:17:35.624Z,10.63
2017-12-31T06:18:01.186Z,10.64
2017-12-31T06:18:26.732Z,10.74
2017-12-31T06:18:52.322Z,10.74
2017-12-31T06:19:17.760Z,10.68
2017-12-31T06:19:43.242Z,10.72
2017-12-31T06:20:08.750Z,10.72
2017-12-31T06:20:34.244Z,10.79
2017-12-31T06:20:59.749Z,10.76
2017-12-31T06:21:47.573Z,10.74
2017-12-31T06:22:13.054Z,10.74
2017-12-31T06:22:38.555Z,10.74
2017-12-31T06:23:04.056Z,10.78
2017-12-31T06:23:29.528Z,10.74
2017-12-31T06:23:55.017Z,10.79
2017-12-31T06:24:20.474Z,10.82
2017-12-31T06:24:45.944Z,10.81
2017-12-31T06:25:11.453Z,10.75
2017-12-31T06:25:36.982Z,10.84
2017-12-31T06:26:02.468Z,10.84
2017-12-31T06:26:27.978Z,10.86
2017-12-31T06:26:53.455Z,10.84
2017-12-31T06:27:41.811Z,10.92
2017-12-31T06:28:07.258Z,10.82
2017-12-31T06:28:32.761Z,10.79
2017-12-31T06:28:58.259Z,10.93
2017-12-31T06:30:06.991Z,10.82
2017-12-31T06:30:32.479Z,10.92
2017-12-31T06:30:57.983Z,10.81
2017-12-31T06:31:23.517Z,10.79
2017-12-31T06:31:49.001Z,10.81
2017-12-31T06:32:14.465Z,10.81
2017-12-31T06:32:39.981Z,10.84
2017-12-31T06:33:05.474Z,10.94
2017-12-31T06:33:30.992Z,10.92
2017-12-31T06:33:56.466Z,10.9
2017-12-31T06:35:00.077Z,10.84
2017-12-31T06:35:25.575Z,10.9
2017-12-31T06:35:51.070Z,10.92
2017-12-31T06:36:16.562Z,10.94
2017-12-31T06:36:42.070Z,10.9
2017-12-31T06:37:07.548Z,10.94
2017-12-31T06:37:33.038Z,10.9
2017-12-31T06:37:58.527Z,10.89
2017-12-31T06:38:23.994Z,10.96
2017-12-31T06:38:49.521Z,10.94
2017-12-31T06:39:15.032Z,10.99
2017-12-31T06:39:40.473Z,10.99
2017-12-31T06:40:05.980Z,11.05
2017-12-31T06:40:31.502Z,11
2017-12-31T06:40:56.973Z,10.93
2017-12-31T06:41:22.467Z,11.05
2017-12-31T06:41:47.976Z,10.97
2017-12-31T06:42:13.449Z,11.04
2017-12-31T06:42:38.930Z,10.93
2017-12-31T06:43:04.408Z,11.07
2017-12-31T06:43:29.896Z,11.05
2017-12-31T06:43:55.410Z,10.99
2017-12-31T06:44:20.906Z,11.08
2017-12-31T06:44:46.424Z,10.99
2017-12-31T06:45:11.948Z,10.97
2017-12-31T06:45:37.426Z,11.02
2017-12-31T06:46:35.425Z,11
2017-12-31T06:47:00.904Z,10.99
2017-12-31T06:47:26.405Z,11.02
2017-12-31T06:47:51.936Z,10.92
2017-12-31T06:48:17.412Z,10.96
2017-12-31T06:48:42.884Z,10.93
2017-12-31T06:49:08.356Z,10.96
2017-12-31T06:49:33.831Z,11.05
2017-12-31T06:49:59.310Z,10.96
2017-12-31T06:50:24.838Z,10.99
2017-12-31T06:50:50.298Z,11
2017-12-31T06:51:15.777Z,11.07
2017-12-31T06:51:41.287Z,11.04
2017-12-31T06:52:06.774Z,11.04
2017-12-31T06:52:32.278Z,11.05
2017-12-31T06:53:26.086Z,10.93
2017-12-31T06:53:51.561Z,11.02
2017-12-31T06:54:17.070Z,11.04
2017-12-31T06:54:42.526Z,11.04
2017-12-31T06:55:08.021Z,10.99
2017-12-31T06:55:33.522Z,10.97
2017-12-31T06:55:59.008Z,10.94
2017-12-31T06:56:24.527Z,11.05
2017-12-31T06:56:50.025Z,11
2017-12-31T06:57:15.527Z,10.99
2017-12-31T06:57:41.024Z,10.97
2017-12-31T06:58:06.509Z,11.08
2017-12-31T06:58:32.037Z,11.08
2017-12-31T06:58:57.539Z,10.96
2017-12-31T06:59:23.102Z,10.99
2017-12-31T06:59:48.636Z,11.08
2017-12-31T07:00:14.150Z,11
2017-12-31T07:00:39.676Z,11.08
2017-12-31T07:01:37.683Z,11.02
2017-12-31T07:02:03.203Z,10.94
2017-12-31T07:02:28.727Z,11.05
2017-12-31T07:02:54.214Z,11
2017-12-31T07:03:19.687Z,10.92
2017-12-31T07:03:45.157Z,11.05
2017-12-31T07:04:10.665Z,11.08
2017-12-31T07:04:36.179Z,11.07
2017-12-31T07:05:01.658Z,11
2017-12-31T07:05:27.169Z,11.02
2017-12-31T07:05:52.749Z,11.12
2017-12-31T07:06:18.247Z,11.04
2017-12-31T07:06:43.784Z,11.1
2017-12-31T07:07:09.298Z,11.1
2017-12-31T07:07:34.791Z,11.08
2017-12-31T07:08:00.333Z,11.12
2017-12-31T07:08:25.874Z,11.17
2017-12-31T07:08:51.400Z,11.08
2017-12-31T07:09:16.907Z,11.12
2017-12-31T07:09:42.395Z,11.1
2017-12-31T07:10:07.900Z,11.04
2017-12-31T07:10:33.415Z,11.08
2017-12-31T07:10:58.898Z,11.04
2017-12-31T07:11:24.393Z,11.12
2017-12-31T07:11:49.903Z,11.14
2017-12-31T07:12:15.369Z,11.17
2017-12-31T07:12:40.843Z,11.17
2017-12-31T07:13:06.346Z,11.07
2017-12-31T07:13:54.152Z,11.08
2017-12-31T07:14:19.628Z,11.04
2017-12-31T07:14:45.127Z,11.04
2017-12-31T07:15:10.601Z,11.12
2017-12-31T07:15:36.123Z,11.12
2017-12-31T07:16:01.625Z,11.05
2017-12-31T07:16:27.156Z,11.1
2017-12-31T07:16:52.642Z,11.17
2017-12-31T07:17:56.240Z,11.07
2017-12-31T07:18:21.723Z,11.1
2017-12-31T07:18:47.217Z,11.1
2017-12-31T07:19:12.716Z,11.05
2017-12-31T07:19:38.261Z,11.1
2017-12-31T07:20:03.752Z,11.07
2017-12-31T07:20:29.295Z,11.11
2017-12-31T07:21:22.722Z,11.11
2017-12-31T07:21:48.237Z,11.05
2017-12-31T07:22:13.759Z,11.04
2017-12-31T07:22:39.226Z,11.1
2017-12-31T07:23:04.720Z,11.04
2017-12-31T07:23:30.295Z,11.07
2017-12-31T07:23:55.781Z,11.08
2017-12-31T07:24:21.282Z,10.99
2017-12-31T07:24:46.852Z,11.12
2017-12-31T07:25:12.343Z,11.11
2017-12-31T07:25:37.817Z,11.08
2017-12-31T07:26:03.301Z,11.02
2017-12-31T07:26:28.800Z,11.08
2017-12-31T07:26:54.333Z,11.07
2017-12-31T07:27:19.804Z,11.07
2017-12-31T07:27:45.323Z,11.04
2017-12-31T07:28:10.832Z,11.14
2017-12-31T07:28:36.302Z,11.08
2017-12-31T07:29:01.832Z,11.15
2017-12-31T07:29:27.338Z,11.14
2017-12-31T07:29:52.850Z,11.08
2017-12-31T07:30:18.337Z,11.08
2017-12-31T07:30:43.815Z,11.1
2017-12-31T07:31:09.296Z,11.1
2017-12-31T07:31:34.808Z,11.12
2017-12-31T07:32:00.291Z,11.07
2017-12-31T07:32:25.803Z,11.12
2017-12-31T07:32:51.275Z,11.17
2017-12-31T07:33:16.881Z,11.08
2017-12-31T07:33:42.372Z,11.12
2017-12-31T07:34:07.856Z,11.17
2017-12-31T07:34:33.399Z,11.12
2017-12-31T07:34:58.896Z,11.14
2017-12-31T07:35:24.428Z,11.08
2017-12-31T07:36:22.998Z,11.11
2017-12-31T07:36:48.487Z,11.15
2017-12-31T07:37:13.961Z,11.14
2017-12-31T07:37:39.490Z,11.11
2017-12-31T07:38:04.965Z,11.11
2017-12-31T07:38:30.443Z,11.14
2017-12-31T07:38:55.944Z,11.14
2017-12-31T07:39:21.440Z,11.14
2017-12-31T07:39:46.956Z,11.14
2017-12-31T07:40:12.536Z,11.11
2017-12-31T07:40:38.007Z,11.14
2017-12-31T07:41:41.639Z,11.15
2017-12-31T07:42:07.149Z,11.19
2017-12-31T07:42:32.635Z,11.18
2017-12-31T07:42:58.116Z,11.15
2017-12-31T07:43:23.624Z,11.26
2017-12-31T07:43:49.130Z,11.19
2017-12-31T07:44:14.640Z,11.17
2017-12-31T07:44:40.097Z,11.18
2017-12-31T07:45:05.597Z,11.18
2017-12-31T07:45:31.071Z,11.23
2017-12-31T07:46:39.257Z,11.19
2017-12-31T07:47:04.743Z,11.17
2017-12-31T07:47:30.198Z,11.12
2017-12-31T07:47:55.716Z,11.15
2017-12-31T07:48:21.185Z,11.11
2017-12-31T07:48:46.690Z,11.12
2017-12-31T07:49:12.171Z,11.1
2017-12-31T07:49:37.755Z,11.1
2017-12-31T07:50:03.254Z,11.1
2017-12-31T07:50:28.752Z,11.15
2017-12-31T07:50:54.275Z,11.12
2017-12-31T07:51:19.766Z,11.18
2017-12-31T07:51:45.287Z,11.25
2017-12-31T07:52:10.793Z,11.08
2017-12-31T07:52:36.266Z,11.18
2017-12-31T07:53:01.800Z,11.17
2017-12-31T07:53:27.256Z,11.11
2017-12-31T07:53:52.851Z,11.14
2017-12-31T07:54:18.510Z,11.17
2017-12-31T07:54:44.039Z,11.12
2017-12-31T07:55:09.536Z,11.07
2017-12-31T07:55:35.102Z,11.1
2017-12-31T07:56:00.658Z,11.08
2017-12-31T07:56:26.136Z,11.12
2017-12-31T07:56:51.644Z,11.1
2017-12-31T07:57:17.213Z,11.1
2017-12-31T07:57:42.674Z,11.1
2017-12-31T07:58:08.159Z,11.11
2017-12-31T07:58:33.641Z,11.14
2017-12-31T07:58:59.122Z,11.23
2017-12-31T07:59:24.687Z,11.08
2017-12-31T07:59:50.174Z,11.14
2017-12-31T08:00:15.623Z,11.07
2017-12-31T08:00:41.128Z,11.25
2017-12-31T08:01:06.613Z,11.12
2017-12-31T08:01:32.110Z,11.12
2017-12-31T08:01:57.676Z,11.19
2017-12-31T08:02:23.162Z,11.11
2017-12-31T08:02:48.666Z,11.08
2017-12-31T08:03:14.163Z,11.1
2017-12-31T08:03:39.673Z,11.11
2017-12-31T08:04:05.153Z,11.12
2017-12-31T08:04:30.659Z,11.23
2017-12-31T08:04:56.209Z,11.1
2017-12-31T08:05:21.705Z,11.17
2017-12-31T08:05:47.363Z,11.12
2017-12-31T08:06:12.873Z,11.14
2017-12-31T08:06:38.370Z,11.17
2017-12-31T08:07:03.863Z,11.15
2017-12-31T08:07:29.359Z,11.22
2017-12-31T08:07:54.889Z,11.1
2017-12-31T08:08:20.374Z,11.17
2017-12-31T08:08:45.909Z,11.15
2017-12-31T08:09:11.384Z,11.14
2017-12-31T08:09:37.001Z,11.15
2017-12-31T08:10:02.593Z,11.15
2017-12-31T08:10:28.121Z,11.22
2017-12-31T08:10:53.620Z,11.23
2017-12-31T08:11:19.088Z,11.22
2017-12-31T08:11:44.568Z,11.19
2017-12-31T08:12:10.113Z,11.22
2017-12-31T08:12:35.571Z,11.22
2017-12-31T08:13:01.091Z,11.18
2017-12-31T08:13:26.608Z,11.23
2017-12-31T08:13:52.135Z,11.19
2017-12-31T08:15:01.184Z,11.25
2017-12-31T08:15:26.628Z,11.27
2017-12-31T08:15:52.115Z,11.19
2017-12-31T08:16:17.579Z,11.25
2017-12-31T08:16:43.081Z,11.22
2017-12-31T08:17:08.579Z,11.23
2017-12-31T08:17:34.044Z,11.3
2017-12-31T08:17:59.571Z,11.22
2017-12-31T08:18:25.046Z,11.3
2017-12-31T08:18:50.530Z,11.32
2017-12-31T08:19:16.061Z,11.18
2017-12-31T08:19:41.551Z,11.3
2017-12-31T08:20:07.121Z,11.27
2017-12-31T08:20:32.608Z,11.26
2017-12-31T08:20:58.103Z,11.26
2017-12-31T08:21:23.633Z,11.33
2017-12-31T08:21:49.137Z,11.26
2017-12-31T08:22:14.664Z,11.33
2017-12-31T08:23:23.420Z,11.29
2017-12-31T08:23:48.898Z,11.29
2017-12-31T08:24:14.496Z,11.25
2017-12-31T08:24:39.937Z,11.23
2017-12-31T08:25:48.610Z,11.23
2017-12-31T08:26:14.094Z,11.33
2017-12-31T08:26:39.825Z,11.29
2017-12-31T08:27:05.429Z,11.32
2017-12-31T08:27:31.008Z,11.29
2017-12-31T08:27:56.508Z,11.27
2017-12-31T08:28:22.023Z,11.23
2017-12-31T08:28:47.571Z,11.19
2017-12-31T08:29:13.036Z,11.35
2017-12-31T08:30:11.565Z,11.33
2017-12-31T08:30:37.091Z,11.3
2017-12-31T08:31:02.595Z,11.3
2017-12-31T08:32:06.209Z,11.26
2017-12-31T08:32:31.746Z,11.19
2017-12-31T08:32:57.220Z,11.29
2017-12-31T08:33:22.717Z,11.23
2017-12-31T08:33:48.222Z,11.19
2017-12-31T08:34:13.741Z,11.33
2017-12-31T08:34:39.186Z,11.26
2017-12-31T08:35:27.480Z,11.3
2017-12-31T08:35:52.976Z,11.37
2017-12-31T08:36:18.492Z,11.22
2017-12-31T08:36:44.072Z,11.23
2017-12-31T08:37:09.697Z,11.26
2017-12-31T08:37:35.097Z,11.26
2017-12-31T08:38:00.588Z,11.19
2017-12-31T08:38:26.083Z,11.22
2017-12-31T08:38:51.684Z,11.15
2017-12-31T08:39:17.186Z,11.19
2017-12-31T08:39:42.731Z,11.22
2017-12-31T08:40:08.254Z,11.22
2017-12-31T08:40:33.740Z,11.18
2017-12-31T08:40:59.275Z,11.18
2017-12-31T08:41:24.873Z,11.22
2017-12-31T08:42:22.803Z,11.18
2017-12-31T08:42:48.300Z,11.17
2017-12-31T08:43:57.040Z,11.23
2017-12-31T08:44:22.536Z,11.18
2017-12-31T08:44:48.015Z,11.19
2017-12-31T08:45:13.506Z,11.18
2017-12-31T08:45:39.025Z,11.17
2017-12-31T08:46:04.604Z,11.22
2017-12-31T08:46:30.110Z,11.23
2017-12-31T08:46:55.620Z,11.22
2017-12-31T08:47:21.222Z,11.15
2017-12-31T08:47:46.760Z,11.17
2017-12-31T08:48:12.356Z,11.19
2017-12-31T08:49:21.093Z,11.22
2017-12-31T08:49:46.558Z,11.22
2017-12-31T08:50:12.067Z,11.19
2017-12-31T08:50:37.564Z,11.18
2017-12-31T08:51:03.038Z,11.15
2017-12-31T08:51:28.577Z,11.23
2017-12-31T08:51:54.203Z,11.22
2017-12-31T08:52:19.629Z,11.22
2017-12-31T08:52:45.158Z,11.17
2017-12-31T08:53:10.662Z,11.26
2017-12-31T08:53:36.209Z,11.17
2017-12-31T08:54:01.693Z,11.19
2017-12-31T08:54:27.209Z,11.19
2017-12-31T08:54:52.725Z,11.19
2017-12-31T08:55:18.178Z,11.23
2017-12-31T08:55:43.676Z,11.23
2017-12-31T08:56:09.148Z,11.22
2017-12-31T08:56:34.682Z,11.19
2017-12-31T08:57:00.179Z,11.22
2017-12-31T08:57:25.695Z,11.19
2017-12-31T08:57:51.201Z,11.25
2017-12-31T08:58:16.700Z,11.29
2017-12-31T08:58:42.214Z,11.29
2017-12-31T08:59:07.740Z,11.22
2017-12-31T08:59:33.293Z,11.3
2017-12-31T08:59:58.749Z,11.3
2017-12-31T09:00:24.216Z,11.22
2017-12-31T09:00:49.701Z,11.26
2017-12-31T09:01:58.406Z,11.27
2017-12-31T09:02:23.920Z,11.33
2017-12-31T09:02:49.414Z,11.35
2017-12-31T09:03:14.928Z,11.27
2017-12-31T09:03:40.430Z,11.27
2017-12-31T09:04:05.928Z,11.27
2017-12-31T09:04:31.417Z,11.27
2017-12-31T09:04:56.882Z,11.25
2017-12-31T09:05:22.401Z,11.25
2017-12-31T09:05:47.933Z,11.33
2017-12-31T09:06:13.436Z,11.25
2017-12-31T09:06:38.992Z,11.32
2017-12-31T09:07:04.479Z,11.26
2017-12-31T09:07:30.012Z,11.23
2017-12-31T09:07:55.504Z,11.25
2017-12-31T09:08:20.990Z,11.25
2017-12-31T09:08:46.474Z,11.25
2017-12-31T09:09:11.951Z,11.22
2017-12-31T09:09:37.613Z,11.19
2017-12-31T09:10:30.548Z,11.23
2017-12-31T09:10:56.087Z,11.27
2017-12-31T09:11:21.586Z,11.22
2017-12-31T09:11:47.125Z,11.25
2017-12-31T09:12:12.583Z,11.23
2017-12-31T09:12:38.080Z,11.3
2017-12-31T09:13:03.569Z,11.27
2017-12-31T09:13:29.113Z,11.26
2017-12-31T09:13:54.609Z,11.18
2017-12-31T09:14:20.108Z,11.27
2017-12-31T09:15:19.347Z,11.17
2017-12-31T09:15:44.847Z,11.26
2017-12-31T09:16:10.350Z,11.3
2017-12-31T09:16:35.794Z,11.26
2017-12-31T09:17:01.267Z,11.22
2017-12-31T09:17:26.795Z,11.26
2017-12-31T09:17:52.295Z,11.18
2017-12-31T09:18:17.768Z,11.32
2017-12-31T09:18:43.242Z,11.32
2017-12-31T09:19:08.692Z,11.29
2017-12-31T09:19:34.145Z,11.26
2017-12-31T09:19:59.602Z,11.32
2017-12-31T09:20:25.124Z,11.3
2017-12-31T09:20:50.531Z,11.19
2017-12-31T09:21:16.012Z,11.35
2017-12-31T09:21:41.511Z,11.27
2017-12-31T09:22:34.974Z,11.23
2017-12-31T09:23:00.536Z,11.19
2017-12-31T09:23:25.996Z,11.29
2017-12-31T09:23:51.482Z,11.3
2017-12-31T09:24:16.999Z,11.29
2017-12-31T09:24:42.469Z,11.3
2017-12-31T09:25:07.961Z,11.27
2017-12-31T09:25:33.476Z,11.32
2017-12-31T09:25:59.036Z,11.33
2017-12-31T09:26:24.581Z,11.33
2017-12-31T09:26:50.098Z,11.25
2017-12-31T09:27:15.552Z,11.26
2017-12-31T09:27:41.064Z,11.3
2017-12-31T09:28:49.764Z,11.32
2017-12-31T09:29:15.231Z,11.29
2017-12-31T09:29:40.732Z,11.33
2017-12-31T09:30:06.202Z,11.32
2017-12-31T09:30:31.675Z,11.32
2017-12-31T09:30:57.152Z,11.36
2017-12-31T09:31:22.668Z,11.43
2017-12-31T09:31:48.262Z,11.4
2017-12-31T09:32:13.760Z,11.33
2017-12-31T09:32:39.254Z,11.32
2017-12-31T09:33:04.669Z,11.35
2017-12-31T09:33:30.245Z,11.29
2017-12-31T09:33:55.701Z,11.35
2017-12-31T09:34:21.196Z,11.41
2017-12-31T09:34:46.605Z,11.32
2017-12-31T09:35:12.158Z,11.36
2017-12-31T09:35:37.604Z,11.43
2017-12-31T09:36:03.102Z,11.44
2017-12-31T09:36:28.613Z,11.47
2017-12-31T09:36:54.091Z,11.45
2017-12-31T09:37:19.545Z,11.35
2017-12-31T09:37:45.045Z,11.35
2017-12-31T09:38:10.573Z,11.45
2017-12-31T09:38:35.992Z,11.44
2017-12-31T09:39:01.488Z,11.33
2017-12-31T09:39:26.987Z,11.48
2017-12-31T09:39:52.413Z,11.48
2017-12-31T09:40:18.016Z,11.45
2017-12-31T09:40:43.478Z,11.44
2017-12-31T09:41:08.894Z,11.44
2017-12-31T09:41:34.410Z,11.43
2017-12-31T09:41:59.862Z,11.4
2017-12-31T09:42:25.380Z,11.47
2017-12-31T09:42:50.804Z,11.44
2017-12-31T09:43:16.295Z,11.52
2017-12-31T09:43:41.749Z,11.48
2017-12-31T09:44:07.234Z,11.44
2017-12-31T09:44:32.714Z,11.5
2017-12-31T09:44:58.180Z,11.51
2017-12-31T09:45:23.604Z,11.48
2017-12-31T09:45:49.097Z,11.43
2017-12-31T09:46:14.525Z,11.47
2017-12-31T09:46:40.013Z,11.51
2017-12-31T09:47:05.462Z,11.5
2017-12-31T09:47:30.930Z,11.55
2017-12-31T09:47:56.395Z,11.47
2017-12-31T09:48:21.930Z,11.51
2017-12-31T09:48:47.424Z,11.48
2017-12-31T09:49:12.959Z,11.4
2017-12-31T09:49:38.428Z,11.52
2017-12-31T09:50:03.897Z,11.47
2017-12-31T09:50:29.350Z,11.48
2017-12-31T09:50:54.835Z,11.51
2017-12-31T09:51:20.322Z,11.5
2017-12-31T09:52:14.537Z,11.47
2017-12-31T09:52:40.097Z,11.55
2017-12-31T09:53:05.561Z,11.59
2017-12-31T09:53:31.069Z,11.59
2017-12-31T09:53:56.581Z,11.54
2017-12-31T09:54:50.065Z,11.52
2017-12-31T09:55:15.558Z,11.62
2017-12-31T09:55:41.212Z,11.57
2017-12-31T09:56:39.658Z,11.57
2017-12-31T09:57:05.252Z,11.59
2017-12-31T09:57:30.894Z,11.55
2017-12-31T09:57:56.385Z,11.59
2017-12-31T09:58:21.879Z,11.59
2017-12-31T09:58:47.430Z,11.57
2017-12-31T09:59:12.971Z,11.6
2017-12-31T09:59:38.464Z,11.54
2017-12-31T10:00:03.959Z,11.6
2017-12-31T10:00:29.497Z,11.51
2017-12-31T10:00:55.006Z,11.52
2017-12-31T10:01:20.519Z,11.57
2017-12-31T10:01:46.068Z,11.54
2017-12-31T10:02:54.759Z,11.52
2017-12-31T10:03:53.217Z,11.55
2017-12-31T10:04:18.956Z,11.51
2017-12-31T10:04:44.432Z,11.55
2017-12-31T10:05:09.951Z,11.59
2017-12-31T10:05:35.461Z,11.59
2017-12-31T10:06:00.993Z,11.55
2017-12-31T10:06:26.526Z,11.65
2017-12-31T10:06:52.005Z,11.68
2017-12-31T10:07:17.485Z,11.51
2017-12-31T10:07:42.966Z,11.57
2017-12-31T10:08:41.068Z,11.55
2017-12-31T10:09:06.608Z,11.55
2017-12-31T10:09:32.137Z,11.51
2017-12-31T10:10:41.177Z,11.6
2017-12-31T10:11:06.656Z,11.57
2017-12-31T10:11:32.173Z,11.57
2017-12-31T10:11:57.633Z,11.62
2017-12-31T10:12:23.120Z,11.54
2017-12-31T10:12:48.620Z,11.55
2017-12-31T10:13:14.098Z,11.55
2017-12-31T10:13:39.620Z,11.52
2017-12-31T10:14:05.098Z,11.52
2017-12-31T10:14:30.613Z,11.62
2017-12-31T10:14:56.107Z,11.62
2017-12-31T10:15:21.591Z,11.6
2017-12-31T10:15:47.079Z,11.55
2017-12-31T10:16:12.569Z,11.6
2017-12-31T10:16:38.068Z,11.55
2017-12-31T10:17:03.592Z,11.57
2017-12-31T10:17:29.092Z,11.55
2017-12-31T10:17:54.595Z,11.6
2017-12-31T10:18:20.076Z,11.6
2017-12-31T10:18:45.564Z,11.66
2017-12-31T10:19:11.082Z,11.59
2017-12-31T10:19:36.593Z,11.63
2017-12-31T10:20:02.048Z,11.6
2017-12-31T10:20:27.558Z,11.68
2017-12-31T10:20:53.049Z,11.63
2017-12-31T10:21:18.585Z,11.62
2017-12-31T10:21:44.009Z,11.69
2017-12-31T10:22:09.512Z,11.57
2017-12-31T10:22:34.960Z,11.72
2017-12-31T10:23:00.542Z,11.63
2017-12-31T10:23:25.990Z,11.65
2017-12-31T10:23:51.461Z,11.6
2017-12-31T10:24:16.953Z,11.65
2017-12-31T10:24:42.476Z,11.68
2017-12-31T10:25:07.969Z,11.62
2017-12-31T10:25:33.454Z,11.69
2017-12-31T10:25:58.942Z,11.65
2017-12-31T10:26:24.482Z,11.6
2017-12-31T10:26:49.936Z,11.65
2017-12-31T10:27:15.445Z,11.65
2017-12-31T10:28:19.037Z,11.7
2017-12-31T10:28:44.578Z,11.65
2017-12-31T10:29:10.106Z,11.73
2017-12-31T10:29:35.611Z,11.72
2017-12-31T10:30:01.074Z,11.69
2017-12-31T10:30:26.600Z,11.73
2017-12-31T10:30:52.097Z,11.8
2017-12-31T10:31:17.577Z,11.8
2017-12-31T10:31:43.065Z,11.78
2017-12-31T10:32:51.787Z,11.77
2017-12-31T10:33:17.277Z,11.8
2017-12-31T10:33:42.763Z,11.7
2017-12-31T10:34:08.272Z,11.72
2017-12-31T10:34:33.734Z,11.86
2017-12-31T10:34:59.382Z,11.8
2017-12-31T10:35:24.759Z,11.83
2017-12-31T10:35:50.226Z,11.75
2017-12-31T10:36:15.739Z,11.81
2017-12-31T10:36:41.166Z,11.84
2017-12-31T10:37:06.671Z,11.84
2017-12-31T10:37:32.151Z,11.75
2017-12-31T10:37:57.624Z,11.81
2017-12-31T10:38:23.211Z,11.77
2017-12-31T10:38:48.552Z,11.77
2017-12-31T10:39:14.019Z,11.81
2017-12-31T10:39:39.468Z,11.8
2017-12-31T10:40:04.945Z,11.84
2017-12-31T10:40:30.473Z,11.84
2017-12-31T10:40:55.939Z,11.86
2017-12-31T10:41:21.420Z,11.8
2017-12-31T10:42:15.855Z,11.84
2017-12-31T10:42:41.315Z,11.84
2017-12-31T10:43:06.811Z,11.87
2017-12-31T10:43:32.336Z,11.86
2017-12-31T10:43:57.865Z,11.84
2017-12-31T10:44:23.363Z,11.84
2017-12-31T10:44:48.847Z,11.91
2017-12-31T10:45:14.318Z,11.95
2017-12-31T10:45:39.784Z,11.91
2017-12-31T10:46:05.280Z,11.9
2017-12-31T10:46:30.783Z,11.91
2017-12-31T10:46:56.273Z,11.95
2017-12-31T10:47:21.773Z,11.91
2017-12-31T10:47:47.309Z,11.94
2017-12-31T10:48:12.914Z,11.95
2017-12-31T10:48:38.428Z,11.99
2017-12-31T10:49:03.908Z,11.99
2017-12-31T10:49:29.443Z,12
2017-12-31T10:50:27.966Z,11.97
2017-12-31T10:50:53.475Z,12.09
2017-12-31T10:51:18.962Z,12.04
2017-12-31T10:51:44.472Z,12.04
2017-12-31T10:52:09.972Z,12.04
2017-12-31T10:52:35.476Z,12.12
2017-12-31T10:53:00.964Z,12.07
2017-12-31T10:53:26.462Z,12.12
2017-12-31T10:53:51.981Z,12.13
2017-12-31T10:54:17.478Z,12.1
2017-12-31T10:54:42.942Z,12.15
2017-12-31T10:55:08.471Z,12.15
2017-12-31T10:55:33.928Z,12.15
2017-12-31T10:55:59.400Z,12.18
2017-12-31T10:56:24.885Z,12.28
2017-12-31T10:56:50.391Z,12.22
2017-12-31T10:57:15.879Z,12.36